TAF Text Data
IDs:
Format:
Raw Decoded Include METAR

Data at: 0207 UTC 29 Nov 2020

KBDL 282320Z 2900/3006 32012KT P6SM FEW060
  FM290200 30004KT P6SM SKC
  FM291400 21003KT P6SM FEW250
  FM291900 18005KT P6SM SKC